Wynnburg, Tennessee
Current Conditions -  °F | °C
As of 2:35 AM on Saturday 01 Nov 2014 (Local Time) from KDYR Reporting Station
Clear Clear  
Wind Chill: 31°   Ceiling: Unl
Heat Index: 37°   Visibility: 10mi
Dew Point: 18°   Wind: 9mph
Humidity: 45%   Direction: 320°NW
Pressure: 30.34"   Gusts: NA
Location:  36.33°N, 89.47°W
Report Text: KDYR 010735Z 32008KT 10SM CLR 03/M08 A3034 RMK AO1
Loading
Personal Weather Stations






























Interactive Weather Map
Tropical Storm Tracking
New forecast layout! Learn more

10-Day Weather Forecast

Advertisements
Track Severe Weather on mobile